Tiempo atmosférico en la estación meteorológica de Los Arcos, Navarra (470 m.)



Fecha
DESCASC
Temp. máxima en grados centígrados (hora)
DESCASC
Temp. mínima en grados centígrados (hora)
DESCASC
Temp. media en grados centígrados
DESCASC
Racha de viento máxima en m/sg (hora)
DESCASC
Velocidad máxima media en intervalos de 10 minutos(hora)
DESCASC
Precipitaciones diarias en mm
DESCASC
Precipitaciones de 00:00 a 06:00 en mm
DESCASC
Precipitaciones de 06:00 a 12:00 en mm
DESCASC
Precipitaciones de 12:00 a 18:00 en mm
DESCASC
Precipitaciones de 18:00 a 24:00 en mm
DESCASC
02-07-2020 26 (14:20) 15.6 (23:30) 20.8 10.28 (18:20) 5.83 (16:30) 0 0 0 0 0
01-07-2020 30.7 (14:40) 17.6 (05:40) 24.2 11.11 (19:20) 6.94 (19:20) 0 0 0 0 0
30-06-2020 32.4 (17:30) 11.9 (00:00) 22.2 6.39 (17:40) 3.89 (18:40) 0 0 0 0 0
29-06-2020 27 (15:00) 15.9 (00:00) 21.4 9.44 (19:20) 6.11 (21:00) 0 0 0 0 0
28-06-2020 31.1 (16:50) 15.2 (00:00) 23.2 10.56 (22:10) 5.28 (19:50) 0 0 0 0 0
27-06-2020 30.4 (15:30) 14.1 (00:00) 22.3 6.67 (13:20) 3.89 (03:20) 0 0 0 0 0
26-06-2020 30.4 (17:40) 16.4 (00:00) 23.4 10.83 (19:00) 6.94 (19:00) 0 0 0 0 0
25-06-2020 30.2 (17:30) 17.3 (00:00) 23.8 15 (19:00) 5 (18:30) 22.4 0 0 1.4 21
24-06-2020 34.4 (19:10) 20 (00:00) 27.2 13.06 (21:20) 8.06 (21:20) 0 0 0 0 0
23-06-2020 33.6 (17:00) 12.1 (00:00) 22.8 6.94 (10:40) 4.72 (02:30) 0 0 0 0 0
22-06-2020 31.4 (16:50) 13.4 (00:00) 22.4 8.06 (18:40) 3.89 (18:40) 0 0 0 0 0
21-06-2020 29.9 (15:40) 12.5 (00:00) 21.2 11.67 (20:50) 6.11 (20:30) 0 0 0 0 0
20-06-2020 30.8 (18:00) 11.2 (00:00) 21 6.67 (15:40) 3.61 (05:10) 0 0 0 0 0
19-06-2020 28.1 (17:10) 9.7 (00:00) 18.9 8.61 (22:40) 5 (22:40) 0 0 0 0 0
18-06-2020 22.9 (14:40) 11.2 (00:00) 17 6.94 (15:10) 3.33 (15:10) 0 0 0 0 0
17-06-2020 22.3 (16:40) 11.2 (00:00) 16.7 9.17 (17:10) 4.44 (19:20) 0.4 0.2 0 0.2 0
16-06-2020 23.8 (14:30) 12.6 (00:00) 18.2 9.44 (17:20) 4.72 (15:30) 3.2 0 0 0.4 2.8
15-06-2020 24.6 (17:00) 9.7 (00:00) 17.2 9.17 (13:00) 5 (13:00) 0 0 0 0 0
14-06-2020 24 (14:20) 10.4 (00:00) 17.2 8.61 (15:40) 4.44 (19:00) 0 0 0 0 0
13-06-2020 22.7 (16:40) 9.2 (00:00) 16 13.06 (10:30) 6.39 (10:30) 0 0 0 0 0
12-06-2020 19.9 (16:50) 5.7 (00:00) 12.8 8.89 (19:00) 5 (19:00) 4 0.2 0 2.6 1.2
11-06-2020 21.6 (16:20) 8.4 (00:00) 15 8.33 (18:10) 4.72 (18:00) 9.4 0 0 0 9.4
10-06-2020 21.4 (16:10) 9.4 (00:00) 15.4 6.94 (13:10) 3.61 (15:30) 0 0 0 0 0
09-06-2020 20 (14:10) 7.7 (00:00) 13.8 10.28 (15:00) 5.83 (16:30) 0 0 0 0 0
08-06-2020 18.6 (15:30) 8 (00:00) 13.3 11.39 (19:10) 6.39 (19:20) 0 0 0 0 0
07-06-2020 14.6 (15:40) 8 (00:00) 11.3 10 (17:50) 5 (17:50) 0.4 0.2 0 0.2 0
06-06-2020 24.8 (15:00) 10.6 (00:00) 17.7 8.89 (19:10) 4.17 (18:50) 13.8 0 0 2.2 11.6
05-06-2020 26.1 (17:40) 11.4 (00:00) 18.8 9.17 (10:40) 4.72 (02:10) 0.2 0 0.2 0 0
04-06-2020 19.1 (15:20) 9.8 (00:00) 14.5 12.5 (17:40) 6.67 (18:40) 0.2 0 0 0 0.2

Gráficas

Temp. máximas Temp. mínimas Temp. medias Precipitaciones Rachas de viento máximas Velocidades máximas media en intervalos de 10 minutos

Datos horarios

Fecha y hora oficial Temperatura (ºC) Velocidad del viento (km/h) Dirección del viento Racha (km/h) Dirección de racha Precipitación (mm) Presión (hPa) Tendencia (hPa) Humedad (%)
2020-07-03 23:00:00 14.3 7 Norte 20 Norte 0 -- -- 66
2020-07-03 22:00:00 15.7 10 Norte 29 Nordeste 0 -- -- 63
2020-07-03 21:00:00 17.4 17 Norte 30 Norte 0 -- -- 59
2020-07-03 20:00:00 19.4 15 Norte 32 Nordeste 0 -- -- 55
2020-07-03 19:00:00 21.9 15 Norte 33 Norte 0 -- -- 49
2020-07-03 18:00:00 21.4 17 Nordeste 35 Nordeste 0 -- -- 48
2020-07-03 17:00:00 22.3 17 Norte 35 Norte 0 -- -- 48
2020-07-03 16:00:00 22.9 15 Norte 28 Norte 0 -- -- 47
2020-07-03 15:00:00 23.4 13 Nordeste 31 Nordeste 0 -- -- 43
2020-07-03 14:00:00 23.7 14 Norte 28 Noroeste 0 -- -- 42
2020-07-03 13:00:00 22.3 14 Norte 32 Norte 0 -- -- 41
2020-07-03 12:00:00 21.7 10 Norte 29 Noroeste 0 -- -- 43
2020-07-03 11:00:00 20.1 15 Norte 26 Norte 0 -- -- 50
2020-07-03 10:00:00 18.9 10 Noroeste 25 Noroeste 0 -- -- 55
2020-07-03 09:00:00 16 9 Noroeste 19 Oeste 0 -- -- 66
2020-07-03 08:00:00 15.7 9 Noroeste 17 Noroeste 0 -- -- 67
2020-07-03 07:00:00 14.3 7 Noroeste 12 Noroeste 0 -- -- 76
2020-07-03 06:00:00 14.2 5 Oeste 14 Noroeste 0 -- -- 80
2020-07-03 05:00:00 13.7 7 Oeste 13 Noroeste 0 -- -- 83
2020-07-03 04:00:00 14.3 9 Noroeste 20 Norte 0 -- -- 83
2020-07-03 03:00:00 14.9 5 Norte 18 Noroeste 0 -- -- 77
2020-07-03 02:00:00 14.9 7 Noroeste 17 Oeste 0 -- -- 78
2020-07-03 01:00:00 15.1 8 Noroeste 20 Norte 0 -- -- 73
2020-07-03 00:00:00 15.6 9 Noroeste 19 Norte 0 -- -- 74
2020-07-02 23:00:00 15.8 7 Norte 25 Norte 0 -- -- 73
2020-07-02 22:00:00 16.2 10 Norte 27 Norte 0 -- -- 70
2020-07-02 21:00:00 16.6 13 Norte 36 Norte 0 -- -- 70
2020-07-02 20:00:00 17.6 19 Norte 35 Norte 0 -- -- 66
2020-07-02 19:00:00 18.6 19 Norte 37 Norte 0 -- -- 66
2020-07-02 18:00:00 21.5 18 Norte 34 Norte 0 -- -- 57
2020-07-02 17:00:00 22.3 18 Norte 36 Norte 0 -- -- 56
2020-07-02 16:00:00 24.3 18 Norte 31 Norte 0 -- -- 53
2020-07-02 15:00:00 23.9 17 Noroeste 33 Noroeste 0 -- -- 55
2020-07-02 14:00:00 25.2 13 Norte 27 Norte 0 -- -- 51
2020-07-02 13:00:00 24 11 Norte 24 Norte 0 -- -- 52
2020-07-02 12:00:00 23.8 11 Norte 26 Norte 0 -- -- 55
2020-07-02 11:00:00 23 11 Norte 24 Norte 0 -- -- 57
2020-07-02 10:00:00 19.4 11 Norte 21 Norte 0 -- -- 69
2020-07-02 09:00:00 18.7 9 Norte 24 Norte 0 -- -- 69
2020-07-02 08:00:00 17.7 6 Norte 20 Norte 0 -- -- 74
2020-07-02 07:00:00 17.1 11 Norte 28 Norte 0 -- -- 76
2020-07-02 06:00:00 17.2 11 Norte 26 Norte 0 -- -- 76
2020-07-02 05:00:00 17.6 10 Noroeste 22 Norte 0 -- -- 76
2020-07-02 04:00:00 17.8 9 Norte 20 Noroeste 0 -- -- 76
2020-07-02 03:00:00 18.5 9 Norte 18 Norte 0 -- -- 75
2020-07-02 02:00:00 18.9 7 Norte 21 Norte 0 -- -- 75
2020-07-02 01:00:00 19.1 12 Norte 28 Norte 0 -- -- 73
2020-07-02 00:00:00 19.2 10 Noroeste 27 Norte 0 -- -- 73
2020-07-01 23:00:00 19.6 10 Noroeste 27 Norte 0 -- -- 71
2020-07-01 22:00:00 19.9 10 Norte 31 Norte 0 -- -- 69
2020-07-01 21:00:00 20.2 18 Norte 39 Norte 0 -- -- 71
2020-07-01 20:00:00 22.2 21 Norte 40 Norte 0 -- -- 65
2020-07-01 19:00:00 24.1 18 Norte 33 Norte 0 -- -- 60
2020-07-01 18:00:00 24.8 15 Nordeste 31 Norte 0 -- -- 59
2020-07-01 17:00:00 26.5 15 Nordeste 31 Norte 0 -- -- 56
2020-07-01 16:00:00 30.4 12 Noroeste 29 Noroeste 0 -- -- 47
2020-07-01 15:00:00 30.4 15 Norte 26 Noroeste 0 -- -- 48
2020-07-01 14:00:00 29.7 8 Norte 21 Norte 0 -- -- 51
2020-07-01 13:00:00 28.7 9 Norte 30 Norte 0 -- -- 55
2020-07-01 12:00:00 26.9 6 Oeste 15 Oeste 0 -- -- 58
2020-07-01 11:00:00 25.6 9 Oeste 17 Oeste 0 -- -- 62
2020-07-01 10:00:00 23.9 3 Noroeste 11 Norte 0 -- -- 68
2020-07-01 09:00:00 22 6 Noroeste 10 Noroeste 0 -- -- 74
2020-07-01 08:00:00 19.4 0 Calma 15 Noroeste 0 -- -- 83
2020-07-01 07:00:00 18.1 8 Norte 14 Norte 0 -- -- 85
2020-07-01 06:00:00 17.6 8 Norte 10 Norte 0 -- -- 84
2020-07-01 05:00:00 18 5 Norte 12 Noroeste 0 -- -- 81
2020-07-01 04:00:00 18.7 3 Norte 13 Norte 0 -- -- 80
2020-07-01 03:00:00 19.2 8 Norte 14 Noroeste 0 -- -- 77
2020-07-01 02:00:00 20.8 5 Nordeste 18 Noroeste 0 -- -- 74
2020-07-01 01:00:00 21.4 12 Norte 20 Noroeste 0 -- -- 70
2020-07-01 00:00:00 21.5 12 Noroeste 18 Noroeste 0 -- -- 72
2020-06-30 23:00:00 22.7 6 Oeste 23 Sudoeste 0 -- -- 71
2020-06-30 22:00:00 23.7 8 Este 17 Norte 0 -- -- 67
2020-06-30 21:00:00 24.8 8 Norte 19 Oeste 0 -- -- 62
2020-06-30 20:00:00 26.4 5 Sudoeste 22 Sudoeste 0 -- -- 54
2020-06-30 19:00:00 30.1 8 Sur 23 Sudeste 0 -- -- 38
2020-06-30 18:00:00 32.2 10 Este 23 Sudeste 0 -- -- 38
2020-06-30 17:00:00 31.7 9 Este 22 Este 0 -- -- 36
2020-06-30 16:00:00 30.8 10 Este 21 Este 0 -- -- 38
2020-06-30 15:00:00 29.8 5 Este 19 Sudeste 0 -- -- 39
2020-06-30 14:00:00 28.3 11 Este 21 Sudeste 0 -- -- 44
2020-06-30 13:00:00 27.1 7 Este 21 Este 0 -- -- 49
2020-06-30 12:00:00 25.7 8 Este 18 Este 0 -- -- 47
2020-06-30 11:00:00 23.5 3 Sur 9 Sudoeste 0 -- -- 44
2020-06-30 10:00:00 19.9 5 Sudoeste 9 Sudoeste 0 -- -- 57
2020-06-30 09:00:00 17.5 3 Oeste 11 Noroeste 0 -- -- 70
2020-06-30 08:00:00 14.5 3 Sudoeste 12 Norte 0 -- -- 84
2020-06-30 07:00:00 11.9 9 Norte 12 Norte 0 -- -- 91
2020-06-30 06:00:00 12.4 6 Norte 14 Noroeste 0 -- -- 89
2020-06-30 05:00:00 13 11 Norte 18 Noroeste 0 -- -- 89
2020-06-30 04:00:00 12.9 8 Noroeste 16 Noroeste 0 -- -- 89
2020-06-30 03:00:00 13.3 12 Noroeste 16 Noroeste 0 -- -- 89
2020-06-30 02:00:00 14.1 8 Noroeste 15 Norte 0 -- -- 87
2020-06-30 01:00:00 14.9 6 Noroeste 14 Noroeste 0 -- -- 85
2020-06-30 00:00:00 15.9 7 Noroeste 22 Norte 0 -- -- 82
2020-06-29 23:00:00 16.4 6 Norte 18 Norte 0 -- -- 79
2020-06-29 22:00:00 17.4 9 Nordeste 28 Norte 0 -- -- 73
2020-06-29 21:00:00 18.9 22 Norte 32 Nordeste 0 -- -- 70
2020-06-29 20:00:00 20.6 18 Norte 34 Norte 0 -- -- 66
2020-06-29 19:00:00 22.9 19 Norte 33 Norte 0 -- -- 60
2020-06-29 18:00:00 25.6 14 Norte 27 Noroeste 0 -- -- 54
2020-06-29 17:00:00 26.2 13 Norte 27 Noroeste 0 -- -- 53
2020-06-29 16:00:00 25.6 13 Nordeste 23 Norte 0 -- -- 54
2020-06-29 15:00:00 27 8 Norte 24 Norte 0 -- -- 52
2020-06-29 14:00:00 26.3 10 Noroeste 19 Noroeste 0 -- -- 53
2020-06-29 13:00:00 24.5 7 Noroeste 18 Norte 0 -- -- 55
2020-06-29 12:00:00 23.7 7 Norte 17 Norte 0 -- -- 59
2020-06-29 11:00:00 22 9 Norte 17 Norte 0 -- -- 64
2020-06-29 10:00:00 21.6 10 Norte 22 Norte 0 -- -- 65
2020-06-29 09:00:00 20 11 Norte 22 Norte 0 -- -- 72
2020-06-29 08:00:00 19 7 Norte 15 Norte 0 -- -- 76
2020-06-29 07:00:00 17.7 4 Noroeste 10 Noroeste 0 -- -- 81
2020-06-29 06:00:00 18.5 6 Oeste 21 Noroeste 0 -- -- 77
2020-06-29 05:00:00 19.2 8 Noroeste 19 Oeste 0 -- -- 74
2020-06-29 04:00:00 19.5 6 Noroeste 17 Noroeste 0 -- -- 72
2020-06-29 03:00:00 19.6 6 Noroeste 14 Noroeste 0 -- -- 74
2020-06-29 02:00:00 19.8 5 Noroeste 17 Norte 0 -- -- 73
2020-06-29 01:00:00 19.8 5 Norte 25 Norte 0 -- -- 72
2020-06-29 00:00:00 19.7 11 Noroeste 22 Norte 0 -- -- 72
2020-06-28 23:00:00 19.9 9 Norte 38 Norte 0 -- -- 72
2020-06-28 22:00:00 20.6 17 Norte 37 Norte 0 -- -- 69
2020-06-28 21:00:00 23 15 Norte 31 Norte 0 -- -- 63
2020-06-28 20:00:00 26.1 16 Norte 31 Norte 0 -- -- 54
2020-06-28 19:00:00 28.1 16 Norte 31 Norte 0 -- -- 48
2020-06-28 18:00:00 29.6 10 Norte 25 Norte 0 -- -- 47
2020-06-28 17:00:00 30.4 7 Norte 23 Oeste 0 -- -- 42
2020-06-28 16:00:00 30.6 8 Oeste 23 Noroeste 0 -- -- 42
2020-06-28 15:00:00 30 7 Noroeste 26 Noroeste 0 -- -- 43
2020-06-28 14:00:00 29.7 12 Noroeste 24 Noroeste 0 -- -- 47
2020-06-28 13:00:00 28.2 6 Sudoeste 16 Oeste 0 -- -- 48
2020-06-28 12:00:00 26.4 5 Oeste 14 Noroeste 0 -- -- 53
2020-06-28 11:00:00 24.6 5 Norte 17 Norte 0 -- -- 60
2020-06-28 10:00:00 22.6 6 Nordeste 15 Norte 0 -- -- 66
2020-06-28 09:00:00 20.9 3 Norte 9 Oeste 0 -- -- 71
2020-06-28 08:00:00 17.5 6 Noroeste 16 Noroeste 0 -- -- 84
2020-06-28 07:00:00 15.3 12 Noroeste 16 Noroeste 0 -- -- 90
2020-06-28 06:00:00 15.6 9 Noroeste 15 Noroeste 0 -- -- 88
2020-06-28 05:00:00 16.4 9 Noroeste 13 Oeste 0 -- -- 84
2020-06-28 04:00:00 17.3 10 Noroeste 15 Noroeste 0 -- -- 80
2020-06-28 03:00:00 18 6 Noroeste 15 Oeste 0 -- -- 78
2020-06-28 02:00:00 19.5 4 Oeste 16 Noroeste 0 -- -- 73
2020-06-28 01:00:00 20.3 8 Noroeste 19 Norte 0 -- -- 68
2020-06-28 00:00:00 21.1 6 Norte 18 Norte 0 -- -- 66
2020-06-27 23:00:00 21.9 9 Norte 16 Norte 0 -- -- 67
2020-06-27 22:00:00 23.6 6 Norte 17 Norte 0 -- -- 61
2020-06-27 21:00:00 26 5 Nordeste 11 Norte 0 -- -- 55
2020-06-27 20:00:00 27.7 6 Norte 17 Norte 0 -- -- 50
2020-06-27 19:00:00 28.5 7 Noroeste 17 Noroeste 0 -- -- 44
2020-06-27 18:00:00 28.8 10 Noroeste 21 Noroeste 0 -- -- 44
2020-06-27 17:00:00 30 7 Oeste 18 Oeste 0 -- -- 40
2020-06-27 16:00:00 29.7 6 Sudeste 22 Oeste 0 -- -- 41
2020-06-27 15:00:00 29.3 8 Oeste 24 Oeste 0 -- -- 41
2020-06-27 14:00:00 28.8 8 Oeste 24 Sudoeste 0 -- -- 42
2020-06-27 13:00:00 27.3 7 Oeste 16 Oeste 0 -- -- 47
2020-06-27 12:00:00 26.3 6 Norte 13 Norte 0 -- -- 49
2020-06-27 11:00:00 23.9 4 Oeste 11 Sudoeste 0 -- -- 60
2020-06-27 10:00:00 21.1 3 Sudoeste 10 Este 0 -- -- 73
2020-06-27 09:00:00 19.1 2 Sur 5 Sudoeste 0 -- -- 80
2020-06-27 08:00:00 16.2 2 Sudeste 14 Noroeste 0 -- -- 93
2020-06-27 07:00:00 14.2 6 Noroeste 14 Norte 0 -- -- 95
2020-06-27 06:00:00 14.2 7 Norte 17 Noroeste 0 -- -- 93
2020-06-27 05:00:00 14.7 3 Norte 12 Norte 0 -- -- 92
2020-06-27 04:00:00 15.3 6 Norte 18 Noroeste 0 -- -- 90
2020-06-27 03:00:00 16 8 Noroeste 14 Norte 0 -- -- 88
2020-06-27 02:00:00 16.7 12 Norte 15 Norte 0 -- -- 87
2020-06-27 01:00:00 17.6 3 Oeste 13 Noroeste 0 -- -- 80
2020-06-27 00:00:00 18.5 11 Norte 15 Norte 0 -- -- 75
2020-06-26 23:00:00 20.1 0 Calma 15 Nordeste 0 -- -- 68
2020-06-26 22:00:00 20.9 10 Nordeste 22 Este 0 -- -- 70
2020-06-26 21:00:00 22.5 6 Este 34 Este 0 -- -- 65
2020-06-26 20:00:00 25.3 9 Sur 37 Este 0 -- -- 56
2020-06-26 19:00:00 26.9 25 Este 39 Este 0 -- -- 50
2020-06-26 18:00:00 30.1 14 Sudeste 30 Sudeste 0 -- -- 38
2020-06-26 17:00:00 29.6 13 Sudeste 30 Este 0 -- -- 42
2020-06-26 16:00:00 28.9 15 Sudeste 34 Sudeste 0 -- -- 41
2020-06-26 15:00:00 28.6 9 Sur 27 Sudeste 0 -- -- 44
2020-06-26 14:00:00 28.4 12 Sudeste 28 Sudeste 0 -- -- 45
2020-06-26 13:00:00 26.7 14 Sudeste 29 Sudeste 0 -- -- 53
2020-06-26 12:00:00 24 15 Este 34 Este 0 -- -- 65
2020-06-26 11:00:00 21.5 15 Este 26 Este 0 -- -- 71
2020-06-26 10:00:00 21.6 15 Este 24 Este 0 -- -- 74
2020-06-26 09:00:00 20 15 Este 23 Este 0 -- -- 77
2020-06-26 08:00:00 18.8 14 Este 23 Este 0 -- -- 80
2020-06-26 07:00:00 17 11 Nordeste 17 Este 0 -- -- 89
2020-06-26 06:00:00 17.7 3 Nordeste 17 Este 0 -- -- 87
2020-06-26 05:00:00 17.9 5 Este 24 Este 0 -- -- 87
2020-06-26 04:00:00 17.6 7 Nordeste 20 Nordeste -- -- -- 88
2020-06-26 03:00:00 17.3 9 Nordeste 17 Nordeste 0 -- -- 89
2020-06-26 02:00:00 16.6 8 Nordeste 13 Norte 0 -- -- 93
2020-06-26 01:00:00 16.8 12 Norte 17 Norte 0 -- -- 95
2020-06-26 00:00:00 17.6 0 Calma 8 Oeste 0 -- -- 95
2020-06-25 23:00:00 18 6 Norte 13 Noroeste 0.8 -- -- 94
2020-06-25 22:00:00 18.4 5 Norte 18 Sudeste 0.2 -- -- 93
2020-06-25 21:00:00 18.5 2 Sur 21 Norte 0 -- -- 92
2020-06-25 20:00:00 18.5 14 Norte 33 Oeste 11.6 -- -- 91
2020-06-25 19:00:00 20.5 18 Sudoeste 54 Oeste 8.4 -- -- 79
2020-06-25 18:00:00 27.9 10 Norte 24 Noroeste 0 -- -- 50
2020-06-25 17:00:00 29.2 6 Oeste 14 Noroeste 0 -- -- 46
2020-06-25 16:00:00 26.5 6 Sudoeste 22 Oeste 0 -- -- 57
2020-06-25 15:00:00 23.1 8 Nordeste 24 Nordeste 0 -- -- 68
2020-06-25 14:00:00 23.9 5 Noroeste 21 Noroeste 1.4 -- -- 77
2020-06-25 13:00:00 27.8 5 Sudeste 18 Sudeste 0 -- -- 45
2020-06-25 12:00:00 27.2 13 Este 29 Este 0 -- -- 48
2020-06-25 11:00:00 25.3 17 Este 26 Este 0 -- -- 53
2020-06-25 10:00:00 23.8 16 Este 26 Este 0 -- -- 57
2020-06-25 09:00:00 21.9 9 Este 14 Este 0 -- -- 63
2020-06-25 08:00:00 18.8 4 Nordeste 6 Nordeste 0 -- -- 76
2020-06-25 07:00:00 17.6 4 Nordeste 11 Nordeste 0 -- -- 76
2020-06-25 06:00:00 17.3 3 Norte 9 Nordeste 0 -- -- 78
2020-06-25 05:00:00 17.9 5 Nordeste 8 Nordeste 0 -- -- 77
2020-06-25 04:00:00 19.4 0 Calma 13 Norte 0 -- -- 70
2020-06-25 03:00:00 21.8 3 Sudoeste 18 Este 0 -- -- 61
2020-06-25 02:00:00 20.8 9 Noroeste 17 Noroeste 0 -- -- 66
2020-06-25 01:00:00 21 2 Nordeste 18 Norte 0 -- -- 69
2020-06-25 00:00:00 22.6 6 Nordeste 16 Norte 0 -- -- 63
2020-06-24 23:00:00 23.6 6 Norte 19 Este 0 -- -- 57
2020-06-24 22:00:00 25.3 11 Nordeste 47 Sudeste 0 -- -- 51
2020-06-24 21:00:00 31.4 16 Este 24 Este 0 -- -- 33
2020-06-24 20:00:00 32.6 14 Este 20 Este 0 -- -- 35
2020-06-24 19:00:00 34.3 5 Sudeste 14 Este 0 -- -- 29
2020-06-24 18:00:00 34 6 Sudeste 15 Sur 0 -- -- 30
2020-06-24 17:00:00 32.9 5 Sudoeste 14 Sur 0 -- -- 35
2020-06-24 16:00:00 31.1 4 Sudoeste 11 Sur 0 -- -- 37
2020-06-24 15:00:00 29.5 5 Sudeste 11 Sudeste 0 -- -- 43
2020-06-24 14:00:00 29.6 3 Sur 19 Oeste 0 -- -- 45
2020-06-24 13:00:00 29.9 7 Sur 22 Sudeste 0 -- -- 43
2020-06-24 12:00:00 28.7 8 Sudeste 22 Este 0 -- -- 48
2020-06-24 11:00:00 26.6 12 Este 24 Este 0 -- -- 52
2020-06-24 10:00:00 24.8 5 Sudeste 15 Sudeste 0 -- -- 58
2020-06-24 09:00:00 22.9 10 Este 20 Este 0 -- -- 64
2020-06-24 08:00:00 20.1 6 Nordeste 15 Este 0 -- -- 72
2020-06-24 07:00:00 20.2 10 Este 15 Este 0 -- -- 71
2020-06-24 06:00:00 20.9 8 Este 14 Este 0 -- -- 68
2020-06-24 05:00:00 21.2 3 Noroeste 21 Este 0 -- -- 65
2020-06-24 04:00:00 22.5 10 Nordeste 20 Nordeste 0 -- -- 61
2020-06-24 03:00:00 23 12 Este 21 Este 0 -- -- 60
2020-06-24 02:00:00 23.6 12 Este 21 Nordeste 0 -- -- 54
2020-06-24 01:00:00 23.8 9 Noroeste 14 Oeste 0 -- -- 53
2020-06-24 00:00:00 24.1 6 Oeste 14 Noroeste 0 -- -- 49
2020-06-23 23:00:00 24.7 8 Norte 10 Norte 0 -- -- 45
2020-06-23 22:00:00 27.7 3 Este 9 Sur 0 -- -- 37
2020-06-23 21:00:00 30.9 5 Sur 16 Sudeste 0 -- -- 34
2020-06-23 20:00:00 32.1 7 Sudeste 15 Este 0 -- -- 33
2020-06-23 19:00:00 32.7 10 Sudeste 17 Sudeste 0 -- -- 32
2020-06-23 18:00:00 32.1 5 Sudeste 21 Nordeste 0 -- -- 31
2020-06-23 17:00:00 33.6 8 Este 22 Este 0 -- -- 29
2020-06-23 16:00:00 32.8 9 Sudeste 23 Sudeste 0 -- -- 31
2020-06-23 15:00:00 31.4 9 Sudeste 22 Este 0 -- -- 33
2020-06-23 14:00:00 29.8 9 Sudeste 22 Este 0 -- -- 41
2020-06-23 13:00:00 28.1 12 Este 22 Este 0 -- -- 45
2020-06-23 12:00:00 25.9 13 Este 24 Este 0 -- -- 54
2020-06-23 11:00:00 24.3 12 Este 25 Este 0 -- -- 58
2020-06-23 10:00:00 22.5 14 Este 21 Este 0 -- -- 63
2020-06-23 09:00:00 19.1 3 Sudoeste 4 Sudeste 0 -- -- 63
2020-06-23 08:00:00 15.4 2 Sudeste 12 Norte 0 -- -- 74
2020-06-23 07:00:00 12.2 4 Noroeste 10 Noroeste 0 -- -- 84
2020-06-23 06:00:00 13 8 Norte 13 Norte 0 -- -- 81
2020-06-23 05:00:00 13.5 13 Norte 16 Norte 0 -- -- 79
2020-06-23 04:00:00 14 9 Noroeste 15 Noroeste 0 -- -- 76
2020-06-23 03:00:00 15.6 12 Norte 20 Norte 0 -- -- 70
2020-06-23 02:00:00 16 10 Norte 18 Norte 0 -- -- 68
2020-06-23 01:00:00 16.9 11 Noroeste 16 Noroeste 0 -- -- 69
2020-06-23 00:00:00 17.8 13 Norte 15 Norte 0 -- -- 64
2020-06-22 23:00:00 19.8 4 Nordeste 15 Norte 0 -- -- 56
2020-06-22 22:00:00 23 6 Norte 19 Norte 0 -- -- 47
2020-06-22 21:00:00 25.1 12 Norte 21 Norte 0 -- -- 42
2020-06-22 20:00:00 27.3 11 Norte 26 Norte 0 -- -- 38
2020-06-22 19:00:00 28.9 14 Norte 29 Nordeste 0 -- -- 37
2020-06-22 18:00:00 30.5 12 Norte 25 Norte 0 -- -- 32
2020-06-22 17:00:00 31.1 10 Norte 23 Norte 0 -- -- 29
2020-06-22 16:00:00 30.4 9 Nordeste 20 Nordeste 0 -- -- 31
2020-06-22 15:00:00 29.6 7 Norte 22 Nordeste 0 -- -- 31
2020-06-22 14:00:00 28.3 10 Nordeste 23 Norte 0 -- -- 36
2020-06-22 13:00:00 27.3 7 Noroeste 22 Norte 0 -- -- 38
2020-06-22 12:00:00 25.2 5 Norte 17 Norte 0 -- -- 44
2020-06-22 11:00:00 23.5 8 Norte 17 Norte 0 -- -- 48
2020-06-22 10:00:00 21.6 11 Noroeste 23 Oeste 0 -- -- 59
2020-06-22 09:00:00 19.2 8 Noroeste 17 Noroeste 0 -- -- 69
2020-06-22 08:00:00 15.6 4 Noroeste 8 Noroeste 0 -- -- 85
2020-06-22 07:00:00 13.5 3 Oeste 10 Noroeste 0 -- -- 88
2020-06-22 06:00:00 14.5 7 Noroeste 11 Noroeste 0 -- -- 87
2020-06-22 05:00:00 13.6 3 Noroeste 9 Norte 0 -- -- 88
2020-06-22 04:00:00 13.7 3 Noroeste 12 Noroeste 0 -- -- 86
2020-06-22 03:00:00 14.1 4 Noroeste 12 Norte 0 -- -- 83
2020-06-22 02:00:00 14.6 5 Noroeste 8 Oeste 0 -- -- 80
2020-06-22 01:00:00 15.7 5 Noroeste 12 Noroeste 0 -- -- 75
2020-06-22 00:00:00 16.7 9 Norte 14 Norte 0 -- -- 70
2020-06-21 23:00:00 18.1 5 Norte 32 Norte 0 -- -- 64
2020-06-21 22:00:00 19.4 13 Norte 33 Norte 0 -- -- 60
2020-06-21 21:00:00 20.9 19 Norte 42 Norte 0 -- -- 59
2020-06-21 20:00:00 23.4 18 Norte 34 Norte 0 -- -- 52
2020-06-21 19:00:00 26.1 15 Norte 35 Norte 0 -- -- 45
2020-06-21 18:00:00 27.5 14 Nordeste 31 Nordeste 0 -- -- 43
2020-06-21 17:00:00 28.7 15 Nordeste 30 Nordeste 0 -- -- 41
2020-06-21 16:00:00 29.7 12 Norte 27 Noroeste 0 -- -- 40
2020-06-21 15:00:00 29 10 Norte 27 Nordeste 0 -- -- 40
2020-06-21 14:00:00 28.8 9 Norte 25 Norte 0 -- -- 41
2020-06-21 13:00:00 28.1 9 Nordeste 19 Noroeste 0 -- -- 40
2020-06-21 12:00:00 26.6 4 Norte 16 Norte 0 -- -- 41
2020-06-21 11:00:00 25.1 7 Norte 17 Oeste 0 -- -- 47
2020-06-21 10:00:00 21.9 5 Sudoeste 11 Sudoeste 0 -- -- 51
2020-06-21 09:00:00 18.1 3 Oeste 6 Sudoeste 0 -- -- 65
2020-06-21 08:00:00 15.6 5 Norte 13 Noroeste 0 -- -- 70
2020-06-21 07:00:00 12.7 11 Noroeste 16 Noroeste 0 -- -- 81
2020-06-21 06:00:00 12.8 3 Noroeste 11 Norte 0 -- -- 80
2020-06-21 05:00:00 13.6 6 Norte 15 Noroeste 0 -- -- 80
2020-06-21 04:00:00 14 12 Noroeste 15 Noroeste 0 -- -- 80
2020-06-21 03:00:00 14.3 7 Noroeste 12 Norte 0 -- -- 79
2020-06-21 02:00:00 15.8 10 Noroeste 13 Noroeste 0 -- -- 76
2020-06-21 01:00:00 17.9 8 Norte 18 Norte 0 -- -- 61
2020-06-21 00:00:00 18.8 12 Norte 21 Norte 0 -- -- 54
2020-06-20 23:00:00 19.8 6 Norte 15 Este 0 -- -- 59
2020-06-20 22:00:00 21.6 6 Este 21 Norte 0 -- -- 57
2020-06-20 21:00:00 24.5 10 Norte 22 Norte 0 -- -- 51
2020-06-20 20:00:00 27.6 10 Norte 21 Noroeste 0 -- -- 40
2020-06-20 19:00:00 30.2 10 Noroeste 23 Noroeste 0 -- -- 31
2020-06-20 18:00:00 30.8 9 Noroeste 22 Noroeste 0 -- -- 33
2020-06-20 17:00:00 30.5 7 Noroeste 22 Oeste 0 -- -- 33
2020-06-20 16:00:00 29.4 11 Oeste 24 Sudoeste 0 -- -- 34
2020-06-20 15:00:00 28.1 6 Sudoeste 22 Sudoeste 0 -- -- 35
2020-06-20 14:00:00 26.2 7 Oeste 18 Sudeste 0 -- -- 38
2020-06-20 13:00:00 25.1 5 Nordeste 15 Sudeste 0 -- -- 44
2020-06-20 12:00:00 23.7 6 Este 15 Este 0 -- -- 48
2020-06-20 11:00:00 21.9 5 Sur 11 Nordeste 0 -- -- 50
2020-06-20 10:00:00 19.3 3 Sudeste 8 Sur 0 -- -- 62
2020-06-20 09:00:00 16.4 4 Sudoeste 6 Oeste 0 -- -- 73
2020-06-20 08:00:00 13.5 0 Calma 7 Noroeste 0 -- -- 87
2020-06-20 07:00:00 11.2 6 Noroeste 15 Noroeste 0 -- -- 91
2020-06-20 06:00:00 11.8 12 Noroeste 16 Noroeste 0 -- -- 91
2020-06-20 05:00:00 12 11 Norte 14 Noroeste 0 -- -- 91
2020-06-20 04:00:00 12.4 10 Noroeste 13 Noroeste 0 -- -- 90
2020-06-20 03:00:00 13.2 9 Noroeste 12 Noroeste 0 -- -- 86
2020-06-20 02:00:00 14.6 4 Oeste 17 Noroeste 0 -- -- 82
2020-06-20 01:00:00 15.3 7 Norte 21 Norte 0 -- -- 80
2020-06-20 00:00:00 16.1 10 Norte 26 Norte 0 -- -- 76
2020-06-19 23:00:00 16.9 9 Norte 31 Norte 0 -- -- 72
2020-06-19 22:00:00 18.3 12 Norte 25 Norte 0 -- -- 68
2020-06-19 21:00:00 21.1 13 Norte 24 Norte 0 -- -- 60
2020-06-19 20:00:00 24.5 10 Norte 23 Nordeste 0 -- -- 52
2020-06-19 19:00:00 27 10 Norte 27 Norte 0 -- -- 47
2020-06-19 18:00:00 27.6 8 Norte 16 Norte 0 -- -- 40
2020-06-19 17:00:00 27.9 7 Nordeste 16 Este 0 -- -- 39
2020-06-19 16:00:00 25.8 4 Este 15 Sudeste 0 -- -- 42
2020-06-19 15:00:00 25.9 7 Sur 18 Sudeste 0 -- -- 42
2020-06-19 14:00:00 24.7 8 Este 19 Sudeste 0 -- -- 48
2020-06-19 13:00:00 23.5 10 Este 23 Sudeste 0 -- -- 50
2020-06-19 12:00:00 22.1 8 Sudeste 19 Este 0 -- -- 48
2020-06-19 11:00:00 20.2 7 Este 14 Este 0 -- -- 49
2020-06-19 10:00:00 17.5 3 Sudoeste 8 Oeste 0 -- -- 61
2020-06-19 09:00:00 13.9 3 Sudeste 5 Sudeste 0 -- -- 79
2020-06-19 08:00:00 11.6 0 Calma 10 Norte 0 -- -- 85
2020-06-19 07:00:00 10 7 Norte 12 Noroeste 0 -- -- 90
2020-06-19 06:00:00 9.8 10 Norte 14 Noroeste 0 -- -- 89
2020-06-19 05:00:00 10.3 10 Norte 15 Noroeste 0 -- -- 89
2020-06-19 04:00:00 10.5 11 Norte 13 Norte 0 -- -- 89
2020-06-19 03:00:00 10.6 11 Norte 12 Norte 0 -- -- 89
2020-06-19 02:00:00 11.6 5 Noroeste 8 Noroeste 0 -- -- 84
2020-06-19 01:00:00 12.5 2 Nordeste 9 Noroeste 0 -- -- 81
2020-06-19 00:00:00 13.7 5 Norte 21 Nordeste 0 -- -- 75
2020-06-18 23:00:00 14.3 10 Norte 19 Norte 0 -- -- 74
2020-06-18 22:00:00 15.7 10 Norte 21 Norte 0 -- -- 70
2020-06-18 21:00:00 18.6 12 Norte 23 Norte 0 -- -- 61
2020-06-18 20:00:00 19.8 12 Norte 19 Norte 0 -- -- 57
2020-06-18 19:00:00 21 9 Nordeste 23 Norte 0 -- -- 53
2020-06-18 18:00:00 21.6 8 Norte 15 Norte 0 -- -- 50
2020-06-18 17:00:00 21.7 6 Nordeste 13 Norte 0 -- -- 50
2020-06-18 16:00:00 22.3 6 Este 25 Este 0 -- -- 47
2020-06-18 15:00:00 22.6 5 Sudoeste 17 Norte 0 -- -- 46
2020-06-18 14:00:00 20.8 6 Nordeste 14 Sudeste 0 -- -- 48
2020-06-18 13:00:00 20.6 4 Nordeste 15 Sudeste 0 -- -- 50
2020-06-18 12:00:00 18.6 4 Nordeste 15 Nordeste 0 -- -- 54
2020-06-18 11:00:00 17.9 4 Sudeste 16 Oeste 0 -- -- 56
2020-06-18 10:00:00 15.8 4 Noroeste 12 Oeste 0 -- -- 65
2020-06-18 09:00:00 13.7 5 Noroeste 14 Noroeste 0 -- -- 76
2020-06-18 08:00:00 13 7 Noroeste 15 Noroeste 0 -- -- 76
2020-06-18 07:00:00 12.7 7 Noroeste 18 Norte 0 -- -- 77
2020-06-18 06:00:00 12.3 8 Noroeste 15 Noroeste 0 -- -- 79
2020-06-18 05:00:00 11.3 4 Oeste 8 Norte 0 -- -- 87
2020-06-18 04:00:00 11.2 3 Noroeste 9 Noroeste 0 -- -- 86
2020-06-18 03:00:00 11.5 6 Norte 8 Norte 0 -- -- 85
2020-06-18 02:00:00 12.2 3 Norte 13 Este 0 -- -- 84
2020-06-18 01:00:00 13 8 Este 13 Este 0 -- -- 81
2020-06-18 00:00:00 13.6 4 Norte 12 Noroeste 0 -- -- 76
2020-06-17 23:00:00 13.8 6 Noroeste 22 Norte 0 -- -- 73
2020-06-17 22:00:00 14 10 Norte 28 Norte 0 -- -- 72
2020-06-17 21:00:00 15.9 11 Norte 25 Norte 0 -- -- 65
2020-06-17 20:00:00 18.3 14 Norte 28 Noroeste 0 -- -- 56
2020-06-17 19:00:00 20.9 13 Noroeste 25 Noroeste 0 -- -- 46
2020-06-17 18:00:00 20.1 14 Norte 33 Noroeste 0 -- -- 53
2020-06-17 17:00:00 22 7 Noroeste 22 Oeste 0 -- -- 44
2020-06-17 16:00:00 21.3 6 Oeste 21 Oeste 0 -- -- 45
2020-06-17 15:00:00 20.4 5 Noroeste 21 Oeste 0 -- -- 46
2020-06-17 14:00:00 18.9 6 Oeste 15 Noroeste 0 -- -- 56
2020-06-17 13:00:00 17.4 8 Norte 17 Noroeste 0.2 -- -- 64
2020-06-17 12:00:00 17.9 5 Oeste 14 Noroeste 0 -- -- 58
2020-06-17 11:00:00 17.4 6 Noroeste 15 Oeste 0 -- -- 64
2020-06-17 10:00:00 15 6 Oeste 12 Sudoeste 0 -- -- 76
2020-06-17 09:00:00 13.3 4 Sudoeste 9 Sudoeste 0 -- -- 87
2020-06-17 08:00:00 11.8 0 Calma 6 Norte 0 -- -- 93
2020-06-17 07:00:00 11.3 6 Nordeste 8 Nordeste 0 -- -- 94
2020-06-17 06:00:00 11.2 2 Oeste 9 Noroeste 0.2 -- -- 91
2020-06-17 05:00:00 11.7 6 Noroeste 10 Noroeste 0 -- -- 91
2020-06-17 04:00:00 11.9 6 Noroeste 8 Noroeste 0 -- -- 91
2020-06-17 03:00:00 12.4 4 Oeste 14 Norte 0 -- -- 86
2020-06-17 02:00:00 12.6 5 Norte 17 Noroeste 0 -- -- 83
2020-06-17 01:00:00 12.6 3 Noroeste 11 Norte 0 -- -- 83
2020-06-17 00:00:00 12.6 5 Oeste 15 Noroeste 0.2 -- -- 85
2020-06-16 23:00:00 12.8 8 Noroeste 21 Noroeste 0.2 -- -- 85
2020-06-16 22:00:00 13.1 9 Noroeste 17 Noroeste 0.8 -- -- 84
2020-06-16 21:00:00 14.3 3 Noroeste 17 Noroeste 0 -- -- 83
2020-06-16 20:00:00 15 5 Sudoeste 14 Sudoeste 0 -- -- 84
2020-06-16 19:00:00 15.4 7 Este 18 Noroeste 1.6 -- -- 81
2020-06-16 18:00:00 15.4 4 Sur 34 Norte 0.4 -- -- 78
2020-06-16 17:00:00 17.5 13 Norte 30 Norte 0 -- -- 62
2020-06-16 16:00:00 21.2 16 Norte 30 Norte 0 -- -- 52
2020-06-16 15:00:00 22.8 11 Norte 29 Oeste 0 -- -- 49
2020-06-16 14:00:00 22.7 12 Oeste 23 Sudoeste 0 -- -- 44
2020-06-16 13:00:00 21.8 3 Oeste 14 Noroeste 0 -- -- 48
2020-06-16 12:00:00 21.5 5 Oeste 17 Norte 0 -- -- 49
2020-06-16 11:00:00 20.2 3 Sudeste 10 Sudoeste 0 -- -- 54
2020-06-16 10:00:00 17.9 3 Sur 8 Oeste 0 -- -- 61
2020-06-16 09:00:00 15.6 3 Oeste 8 Oeste 0 -- -- 70
2020-06-16 08:00:00 14 3 Oeste 8 Noroeste 0 -- -- 79
2020-06-16 07:00:00 13.7 4 Noroeste 12 Noroeste 0 -- -- 79
2020-06-16 06:00:00 13.8 5 Noroeste 9 Noroeste 0 -- -- 79
2020-06-16 05:00:00 13.8 4 Noroeste 8 Noroeste 0 -- -- 77
2020-06-16 04:00:00 13.8 8 Noroeste 10 Noroeste 0 -- -- 75
2020-06-16 03:00:00 13.7 5 Oeste 11 Noroeste 0 -- -- 75
2020-06-16 02:00:00 13.8 4 Noroeste 14 Norte 0 -- -- 73
2020-06-16 01:00:00 14.1 6 Noroeste 18 Norte 0 -- -- 70
2020-06-16 00:00:00 14.7 7 Norte 17 Norte 0 -- -- 67
2020-06-15 23:00:00 15.6 8 Norte 20 Nordeste 0 -- -- 65
2020-06-15 22:00:00 16.7 7 Nordeste 24 Nordeste 0 -- -- 62
2020-06-15 21:00:00 18.6 5 Nordeste 21 Nordeste 0 -- -- 60
2020-06-15 20:00:00 20.2 7 Nordeste 19 Norte 0 -- -- 56
2020-06-15 19:00:00 21 8 Nordeste 22 Nordeste 0 -- -- 54
2020-06-15 18:00:00 23.3 9 Norte 24 Noroeste 0 -- -- 47
2020-06-15 17:00:00 24.6 12 Noroeste 30 Noroeste 0 -- -- 43
2020-06-15 16:00:00 24 12 Noroeste 29 Noroeste 0 -- -- 44
2020-06-15 15:00:00 23.8 14 Noroeste 30 Oeste 0 -- -- 45
2020-06-15 14:00:00 24.3 13 Noroeste 32 Oeste 0 -- -- 43
2020-06-15 13:00:00 22.9 18 Oeste 33 Sudoeste 0 -- -- 44
2020-06-15 12:00:00 20.3 7 Oeste 15 Oeste 0 -- -- 55
2020-06-15 11:00:00 16.4 3 Oeste 9 Oeste 0 -- -- 66
2020-06-15 10:00:00 15.2 0 Calma 6 Oeste 0 -- -- 70
2020-06-15 09:00:00 14.8 0 Calma 8 Norte 0 -- -- 69
2020-06-15 08:00:00 11.9 6 Norte 12 Noroeste 0 -- -- 83
2020-06-15 07:00:00 10.7 8 Noroeste 12 Noroeste 0 -- -- 87
2020-06-15 06:00:00 9.8 6 Noroeste 9 Noroeste 0 -- -- 86
2020-06-15 05:00:00 11.2 5 Oeste 9 Noroeste 0 -- -- 82
2020-06-15 04:00:00 12 6 Noroeste 10 Noroeste 0 -- -- 79
2020-06-15 03:00:00 13.3 4 Noroeste 10 Noroeste 0 -- -- 73
2020-06-15 02:00:00 13.3 4 Norte 13 Noroeste 0 -- -- 70
2020-06-15 01:00:00 13.2 6 Norte 17 Nordeste 0 -- -- 71
2020-06-15 00:00:00 14.6 6 Norte 18 Norte 0 -- -- 67
2020-06-14 23:00:00 15.8 7 Nordeste 16 Nordeste 0 -- -- 65
2020-06-14 22:00:00 16.7 4 Nordeste 19 Norte 0 -- -- 62
2020-06-14 21:00:00 18 10 Norte 21 Norte 0 -- -- 57
2020-06-14 20:00:00 20.1 10 Norte 27 Norte 0 -- -- 53
2020-06-14 19:00:00 21.9 16 Noroeste 27 Noroeste 0 -- -- 41
2020-06-14 18:00:00 21.9 12 Noroeste 23 Oeste 0 -- -- 43
2020-06-14 17:00:00 23.5 10 Noroeste 23 Oeste 0 -- -- 43
2020-06-14 16:00:00 23.4 13 Oeste 31 Oeste 0 -- -- 40
2020-06-14 15:00:00 23.5 11 Oeste 30 Oeste 0 -- -- 41
2020-06-14 14:00:00 23.1 11 Oeste 30 Oeste 0 -- -- 43
2020-06-14 13:00:00 22.4 8 Oeste 21 Noroeste 0 -- -- 42
2020-06-14 12:00:00 21.3 6 Sudoeste 22 Noroeste 0 -- -- 42
2020-06-14 11:00:00 19.9 8 Oeste 17 Noroeste 0 -- -- 48
2020-06-14 10:00:00 17 4 Sudoeste 9 Sudoeste 0 -- -- 69
2020-06-14 09:00:00 14.2 2 Oeste 11 Norte 0 -- -- 78
2020-06-14 08:00:00 11.4 11 Noroeste 16 Noroeste 0 -- -- 92
2020-06-14 07:00:00 10.4 9 Norte 15 Norte 0 -- -- 92
2020-06-14 06:00:00 11.2 8 Noroeste 12 Noroeste 0 -- -- 89
2020-06-14 05:00:00 11.9 3 Noroeste 9 Noroeste 0 -- -- 89
2020-06-14 04:00:00 12.1 10 Noroeste 12 Noroeste 0 -- -- 88
2020-06-14 03:00:00 12.3 4 Sudoeste 16 Noroeste 0 -- -- 87
2020-06-14 02:00:00 12.3 11 Norte 14 Norte 0 -- -- 85
2020-06-14 01:00:00 12.9 6 Noroeste 11 Noroeste 0 -- -- 83
2020-06-14 00:00:00 13.3 4 Norte 10 Norte 0 -- -- 77
2020-06-13 23:00:00 14 6 Norte 12 Noroeste 0 -- -- 71
2020-06-13 22:00:00 16.3 10 Noroeste 18 Noroeste 0 -- -- 61
2020-06-13 21:00:00 18.9 9 Oeste 25 Noroeste 0 -- -- 52
2020-06-13 20:00:00 20.4 11 Noroeste 32 Oeste 0 -- -- 45
2020-06-13 19:00:00 21.4 14 Oeste 31 Oeste 0 -- -- 43
2020-06-13 18:00:00 21.4 13 Oeste 29 Oeste 0 -- -- 45
2020-06-13 17:00:00 21.8 14 Oeste 30 Oeste 0 -- -- 43
2020-06-13 16:00:00 21.5 14 Oeste 32 Noroeste 0 -- -- 45
2020-06-13 15:00:00 20.4 15 Oeste 33 Noroeste 0 -- -- 48
2020-06-13 14:00:00 20.4 11 Noroeste 30 Oeste 0 -- -- 52
2020-06-13 13:00:00 20 17 Noroeste 37 Oeste 0 -- -- 54
2020-06-13 12:00:00 17.6 18 Oeste 39 Sudoeste 0 -- -- 57
2020-06-13 11:00:00 16.6 18 Oeste 47 Noroeste 0 -- -- 61
2020-06-13 10:00:00 16.3 17 Oeste 33 Oeste 0 -- -- 62
2020-06-13 09:00:00 13.9 6 Sudeste 10 Este 0 -- -- 85
2020-06-13 08:00:00 11 2 Sudeste 6 Nordeste 0 -- -- 93
2020-06-13 07:00:00 10.1 4 Oeste 8 Oeste 0 -- -- 93
2020-06-13 06:00:00 10.4 2 Sudeste 9 Este 0 -- -- 94
2020-06-13 05:00:00 9.8 4 Este 11 Noroeste 0 -- -- 95
2020-06-13 04:00:00 9.4 10 Norte 14 Norte 0 -- -- 95
2020-06-13 03:00:00 10.1 6 Nordeste 14 Noroeste 0 -- -- 93
2020-06-13 02:00:00 10.4 8 Norte 11 Norte 0 -- -- 94
2020-06-13 01:00:00 10.8 6 Este 10 Norte 0 -- -- 92
2020-06-13 00:00:00 10.3 8 Norte 12 Nordeste 0 -- -- 93
2020-06-12 23:00:00 11.4 7 Este 13 Este 0 -- -- 91
2020-06-12 22:00:00 11.8 4 Este 7 Nordeste 0 -- -- 93
2020-06-12 21:00:00 12.4 5 Norte 9 Nordeste 0 -- -- 91
2020-06-12 20:00:00 12.4 3 Sur 27 Oeste 0.8 -- -- 88
2020-06-12 19:00:00 13 18 Oeste 32 Oeste 0.4 -- -- 83
2020-06-12 18:00:00 14.3 3 Oeste 27 Sudoeste 2 -- -- 85
2020-06-12 17:00:00 19.5 4 Sudoeste 15 Sur 0 -- -- 46
2020-06-12 16:00:00 19 4 Sudeste 16 Sudeste 0 -- -- 52
2020-06-12 15:00:00 16.8 4 Nordeste 14 Oeste 0.2 -- -- 70
2020-06-12 14:00:00 15.9 4 Sudeste 10 Sudeste 0 -- -- 66
2020-06-12 13:00:00 14.4 0 Calma 14 Este 0.4 -- -- 77
2020-06-12 12:00:00 13.4 10 Este 18 Este 0 -- -- 76
2020-06-12 11:00:00 11.3 10 Este 14 Este 0 -- -- 86
2020-06-12 10:00:00 9.9 7 Este 10 Este 0 -- -- 96
2020-06-12 09:00:00 8.7 3 Nordeste 7 Noroeste 0 -- -- 97
2020-06-12 08:00:00 7.9 2 Norte 11 Norte 0 -- -- 98
2020-06-12 07:00:00 6.1 4 Este 13 Norte 0 -- -- 97
2020-06-12 06:00:00 5.9 10 Noroeste 14 Noroeste 0 -- -- 97
2020-06-12 05:00:00 6.4 4 Nordeste 11 Norte 0.2 -- -- 97
2020-06-12 04:00:00 6 2 Nordeste 11 Norte 0 -- -- 96
2020-06-12 03:00:00 6.6 8 Norte 13 Norte 0 -- -- 96
2020-06-12 02:00:00 7.2 9 Noroeste 11 Noroeste 0 -- -- 95
2020-06-12 01:00:00 7.7 0 Calma 5 Noroeste 0 -- -- 94
2020-06-12 00:00:00 8.4 4 Noroeste 6 Oeste 0.2 -- -- 92
2020-06-11 23:00:00 9.9 4 Noroeste 20 Noroeste 2.2 -- -- 92
2020-06-11 22:00:00 10.3 5 Noroeste 25 Norte 4 -- -- 92
2020-06-11 21:00:00 11.3 6 Noroeste 21 Noroeste 0.4 -- -- 89
2020-06-11 20:00:00 11.8 13 Norte 28 Nordeste 0.2 -- -- 88
2020-06-11 19:00:00 12.1 13 Norte 30 Noroeste 2.4 -- -- 88
2020-06-11 18:00:00 13.9 17 Norte 30 Norte 0 -- -- 80
2020-06-11 17:00:00 20.3 4 Sur 19 Sudeste 0 -- -- 55
2020-06-11 16:00:00 21.3 9 Sudeste 18 Sudeste 0 -- -- 53
2020-06-11 15:00:00 19.4 7 Sur 19 Sudeste 0 -- -- 55
2020-06-11 14:00:00 18.6 3 Sudoeste 13 Este 0 -- -- 57
2020-06-11 13:00:00 17.5 4 Sur 23 Sudeste 0 -- -- 60
2020-06-11 12:00:00 17.6 10 Sudeste 16 Sudeste 0 -- -- 59
2020-06-11 11:00:00 16.3 5 Este 13 Este 0 -- -- 61
2020-06-11 10:00:00 15.1 8 Este 13 Este 0 -- -- 69
2020-06-11 09:00:00 13.7 3 Sur 5 Sudoeste 0 -- -- 79
2020-06-11 08:00:00 12.5 3 Oeste 5 Noroeste 0 -- -- 87
2020-06-11 07:00:00 11.7 2 Este 3 Noroeste 0 -- -- 89
2020-06-11 06:00:00 11.7 0 Calma 8 Este 0 -- -- 88
2020-06-11 05:00:00 11.8 5 Este 8 Este 0 -- -- 85
2020-06-11 04:00:00 12.3 3 Norte 6 Norte 0 -- -- 85
2020-06-11 03:00:00 12.8 3 Norte 10 Norte 0 -- -- 84
2020-06-11 02:00:00 13.2 5 Norte 13 Nordeste 0 -- -- 78
2020-06-11 01:00:00 13.1 2 Norte 8 Este 0 -- -- 77
2020-06-11 00:00:00 13.5 6 Este 9 Este 0 -- -- 75
2020-06-10 23:00:00 13.8 0 Calma 8 Nordeste 0 -- -- 75
2020-06-10 22:00:00 14.8 5 Nordeste 11 Este 0 -- -- 68
2020-06-10 21:00:00 16 5 Este 15 Norte 0 -- -- 64
2020-06-10 20:00:00 16.6 9 Nordeste 17 Nordeste 0 -- -- 62
2020-06-10 19:00:00 17.4 9 Norte 19 Norte 0 -- -- 58
2020-06-10 18:00:00 18.1 8 Norte 19 Nordeste 0 -- -- 56
2020-06-10 17:00:00 19.2 8 Nordeste 21 Norte 0 -- -- 51
2020-06-10 16:00:00 20.9 10 Noroeste 25 Noroeste 0 -- -- 45
2020-06-10 15:00:00 20.5 9 Noroeste 23 Oeste 0 -- -- 46
2020-06-10 14:00:00 20.2 10 Noroeste 25 Noroeste 0 -- -- 46
2020-06-10 13:00:00 19.7 8 Norte 18 Noroeste 0 -- -- 48
2020-06-10 12:00:00 18.4 8 Noroeste 23 Noroeste 0 -- -- 55
2020-06-10 11:00:00 17.1 10 Noroeste 20 Norte 0 -- -- 59
2020-06-10 10:00:00 14.4 8 Oeste 17 Oeste 0 -- -- 65
2020-06-10 09:00:00 13.9 7 Oeste 15 Noroeste 0 -- -- 69
2020-06-10 08:00:00 13.4 9 Oeste 14 Oeste 0 -- -- 72
2020-06-10 07:00:00 11.5 9 Oeste 15 Oeste 0 -- -- 79
2020-06-10 06:00:00 11.2 4 Oeste 13 Sudoeste 0 -- -- 81
2020-06-10 05:00:00 10.8 6 Noroeste 14 Noroeste 0 -- -- 82
2020-06-10 04:00:00 10.5 6 Noroeste 13 Noroeste 0 -- -- 81
2020-06-10 03:00:00 10.6 10 Noroeste 15 Noroeste 0 -- -- 82
2020-06-10 02:00:00 9.4 8 Noroeste 13 Noroeste 0 -- -- 84
2020-06-10 01:00:00 10.6 4 Noroeste 14 Noroeste 0 -- -- 79
2020-06-10 00:00:00 11.5 7 Noroeste 21 Noroeste 0 -- -- 74
2020-06-09 23:00:00 12.9 9 Noroeste 27 Norte 0 -- -- 67
2020-06-09 22:00:00 13.6 16 Norte 36 Norte 0 -- -- 66
2020-06-09 21:00:00 14.6 13 Noroeste 30 Noroeste 0 -- -- 61
2020-06-09 20:00:00 16.2 12 Noroeste 33 Norte 0 -- -- 57
2020-06-09 19:00:00 17.1 13 Noroeste 35 Noroeste 0 -- -- 55
2020-06-09 18:00:00 19.6 17 Noroeste 32 Noroeste 0 -- -- 48
2020-06-09 17:00:00 19.1 14 Noroeste 35 Noroeste 0 -- -- 51
2020-06-09 16:00:00 19.1 17 Norte 34 Nordeste 0 -- -- 50
2020-06-09 15:00:00 18 18 Noroeste 37 Noroeste 0 -- -- 55
2020-06-09 14:00:00 19.9 16 Noroeste 36 Noroeste 0 -- -- 47
2020-06-09 13:00:00 18.3 16 Noroeste 31 Norte 0 -- -- 51
2020-06-09 12:00:00 16.6 13 Noroeste 26 Noroeste 0 -- -- 56
2020-06-09 11:00:00 17.8 12 Noroeste 26 Noroeste 0 -- -- 51
2020-06-09 10:00:00 14.6 12 Noroeste 26 Noroeste 0 -- -- 62
2020-06-09 09:00:00 13.3 11 Noroeste 26 Noroeste 0 -- -- 71
2020-06-09 08:00:00 10.2 6 Oeste 12 Oeste 0 -- -- 82
2020-06-09 07:00:00 7.8 5 Oeste 14 Noroeste 0 -- -- 89
2020-06-09 06:00:00 8.2 5 Oeste 12 Oeste 0 -- -- 85
2020-06-09 05:00:00 8.4 2 Oeste 13 Noroeste 0 -- -- 86
2020-06-09 04:00:00 8.9 4 Oeste 18 Noroeste 0 -- -- 84
2020-06-09 03:00:00 10.3 9 Noroeste 30 Noroeste 0 -- -- 78
2020-06-09 02:00:00 10.6 14 Noroeste 36 Noroeste 0 -- -- 78
2020-06-09 01:00:00 11.3 8 Noroeste 19 Oeste 0 -- -- 78
2020-06-09 00:00:00 11.8 6 Noroeste 26 Noroeste 0 -- -- 75
2020-06-08 23:00:00 11.8 19 Noroeste 39 Noroeste 0 -- -- 73
2020-06-08 22:00:00 12.4 18 Noroeste 32 Noroeste 0 -- -- 71
2020-06-08 21:00:00 13.9 14 Noroeste 27 Noroeste 0 -- -- 67
2020-06-08 20:00:00 15.2 13 Noroeste 41 Oeste 0 -- -- 62
2020-06-08 19:00:00 16 20 Noroeste 37 Noroeste 0 -- -- 59
2020-06-08 18:00:00 16.8 17 Noroeste 35 Noroeste 0 -- -- 61
2020-06-08 17:00:00 17.9 19 Noroeste 34 Noroeste 0 -- -- 55
2020-06-08 16:00:00 16.6 14 Norte 36 Noroeste 0 -- -- 58
2020-06-08 15:00:00 16.7 19 Noroeste 33 Noroeste 0 -- -- 60
2020-06-08 14:00:00 16.9 13 Noroeste 32 Noroeste 0 -- -- 59
2020-06-08 13:00:00 18 13 Oeste 32 Noroeste 0 -- -- 61
2020-06-08 12:00:00 16.2 11 Noroeste 24 Oeste 0 -- -- 64
2020-06-08 11:00:00 14.6 14 Oeste 25 Oeste 0 -- -- 66
2020-06-08 10:00:00 12.9 10 Oeste 23 Noroeste 0 -- -- 71
2020-06-08 09:00:00 11.6 10 Oeste 18 Oeste 0 -- -- 77
2020-06-08 08:00:00 10.8 8 Oeste 20 Noroeste 0 -- -- 80
2020-06-08 07:00:00 9.7 13 Noroeste 21 Noroeste 0 -- -- 83
2020-06-08 06:00:00 9.7 9 Oeste 18 Oeste 0 -- -- 82
2020-06-08 05:00:00 9.7 10 Noroeste 23 Oeste 0 -- -- 84
2020-06-08 04:00:00 9.5 10 Oeste 25 Noroeste 0 -- -- 83
2020-06-08 03:00:00 9.4 13 Noroeste 26 Noroeste 0 -- -- 85
2020-06-08 02:00:00 8.9 12 Oeste 20 Oeste 0 -- -- 85
2020-06-08 01:00:00 9.3 9 Noroeste 17 Oeste 0 -- -- 83
2020-06-08 00:00:00 8 7 Oeste 11 Oeste 0 -- -- 85
2020-06-07 23:00:00 9 0 Calma 19 Noroeste 0 -- -- 80
2020-06-07 22:00:00 10.7 11 Noroeste 33 Noroeste 0 -- -- 72
2020-06-07 21:00:00 12.9 14 Noroeste 32 Noroeste 0 -- -- 66
2020-06-07 20:00:00 14.4 15 Noroeste 32 Noroeste 0 -- -- 59
2020-06-07 19:00:00 14.3 11 Noroeste 28 Noroeste 0 -- -- 63
2020-06-07 18:00:00 13.9 17 Noroeste 36 Noroeste 0 -- -- 65
2020-06-07 17:00:00 13.6 11 Noroeste 28 Noroeste 0 -- -- 67
2020-06-07 16:00:00 14.3 13 Noroeste 29 Noroeste 0 -- -- 69
2020-06-07 15:00:00 13.6 13 Noroeste 24 Noroeste 0 -- -- 71
2020-06-07 14:00:00 14 12 Noroeste 27 Nordeste 0.2 -- -- 71
2020-06-07 13:00:00 12.9 9 Noroeste 31 Norte 0 -- -- 82
2020-06-07 12:00:00 13.6 9 Norte 25 Norte 0 -- -- 78
2020-06-07 11:00:00 13.2 5 Noroeste 17 Noroeste 0 -- -- 83
2020-06-07 10:00:00 12.7 8 Noroeste 18 Noroeste 0 -- -- 80
2020-06-07 09:00:00 12.4 6 Noroeste 17 Norte 0 -- -- 84
2020-06-07 08:00:00 12 7 Noroeste 22 Noroeste 0 -- -- 85
2020-06-07 07:00:00 12.1 5 Noroeste 18 Norte 0 -- -- 88
2020-06-07 06:00:00 12.3 6 Noroeste 13 Noroeste 0.2 -- -- 88
2020-06-07 05:00:00 13 7 Noroeste 13 Noroeste 0 -- -- 91
2020-06-07 04:00:00 13.4 6 Noroeste 8 Noroeste 0 -- -- 92
2020-06-07 03:00:00 13.4 0 Calma 8 Noroeste 0 -- -- 93
2020-06-07 02:00:00 13.3 2 Noroeste 8 Oeste 0 -- -- 92
2020-06-07 01:00:00 13.1 4 Oeste 12 Noroeste 0 -- -- 92
2020-06-07 00:00:00 13 5 Noroeste 12 Noroeste 0 -- -- 90
2020-06-06 23:00:00 13.3 7 Noroeste 13 Noroeste 0 -- -- 89
2020-06-06 22:00:00 14 2 Oeste 15 Noroeste 0.2 -- -- 92
2020-06-06 21:00:00 14.4 4 Norte 12 Oeste 2 -- -- 92
2020-06-06 20:00:00 15 5 Nordeste 32 Norte 1.2 -- -- 87
2020-06-06 19:00:00 15.6 10 Noroeste 28 Norte 8.2 -- -- 84
2020-06-06 18:00:00 19.6 10 Nordeste 22 Norte 2.2 -- -- 73
2020-06-06 17:00:00 21.7 10 Nordeste 21 Nordeste 0 -- -- 61
2020-06-06 16:00:00 24 4 Sur 15 Nordeste 0 -- -- 51
2020-06-06 15:00:00 24.8 6 Sudoeste 15 Sudeste 0 -- -- 50
2020-06-06 14:00:00 23.4 7 Sur 20 Oeste 0 -- -- 54
2020-06-06 13:00:00 22.3 8 Sudoeste 18 Sur 0 -- -- 58
2020-06-06 12:00:00 21.1 6 Sudoeste 16 Sur 0 -- -- 60
2020-06-06 11:00:00 19.5 6 Sudeste 13 Sudeste 0 -- -- 66
2020-06-06 10:00:00 17.4 4 Sudoeste 11 Sudoeste 0 -- -- 72
2020-06-06 09:00:00 15.7 3 Sudoeste 11 Noroeste 0 -- -- 77
2020-06-06 08:00:00 13.5 7 Noroeste 10 Noroeste 0 -- -- 89
2020-06-06 07:00:00 10.7 8 Noroeste 9 Noroeste 0 -- -- 94
2020-06-06 06:00:00 11.1 0 Calma 6 Norte 0 -- -- 93
2020-06-06 05:00:00 11.3 5 Norte 9 Norte 0 -- -- 93
2020-06-06 04:00:00 11.6 8 Noroeste 9 Noroeste 0 -- -- 92
2020-06-06 03:00:00 11.8 7 Noroeste 10 Norte 0 -- -- 90
2020-06-06 02:00:00 12.7 7 Norte 12 Noroeste 0 -- -- 85
2020-06-06 01:00:00 14.3 4 Noroeste 14 Noroeste 0 -- -- 79
2020-06-06 00:00:00 15.1 3 Norte 14 Noroeste 0 -- -- 79
2020-06-05 23:00:00 15.9 4 Norte 15 Nordeste 0 -- -- 76
2020-06-05 22:00:00 17.8 7 Nordeste 18 Norte 0 -- -- 70
2020-06-05 21:00:00 20.6 6 Nordeste 16 Este 0 -- -- 62
2020-06-05 20:00:00 23.8 7 Nordeste 16 Noroeste 0 -- -- 51
2020-06-05 19:00:00 25.6 9 Norte 20 Oeste 0 -- -- 42
2020-06-05 18:00:00 25.9 9 Noroeste 24 Noroeste 0 -- -- 40
2020-06-05 17:00:00 25.5 9 Noroeste 32 Noroeste 0 -- -- 42
2020-06-05 16:00:00 24.4 8 Oeste 22 Sudoeste 0 -- -- 41
2020-06-05 15:00:00 23.2 9 Noroeste 23 Oeste 0 -- -- 42
2020-06-05 14:00:00 22.4 8 Norte 27 Noroeste 0 -- -- 48
2020-06-05 13:00:00 20.8 9 Noroeste 24 Noroeste 0 -- -- 52
2020-06-05 12:00:00 18.2 9 Noroeste 23 Noroeste 0 -- -- 56
2020-06-05 11:00:00 18.8 13 Noroeste 33 Oeste 0 -- -- 54
2020-06-05 10:00:00 16.8 10 Noroeste 22 Noroeste 0 -- -- 61
2020-06-05 09:00:00 14.6 12 Oeste 21 Noroeste 0 -- -- 71
2020-06-05 08:00:00 12.1 11 Noroeste 17 Oeste 0.2 -- -- 84
2020-06-05 07:00:00 11.4 9 Noroeste 20 Noroeste 0 -- -- 84
2020-06-05 06:00:00 12.2 8 Oeste 27 Oeste 0 -- -- 81
2020-06-05 05:00:00 12.1 9 Oeste 21 Oeste 0 -- -- 82
2020-06-05 04:00:00 12.1 8 Oeste 27 Oeste 0 -- -- 81
2020-06-05 03:00:00 11.9 13 Noroeste 31 Noroeste 0 -- -- 80
2020-06-05 02:00:00 12.1 14 Noroeste 25 Oeste 0 -- -- 82
2020-06-05 01:00:00 12.3 6 Noroeste 22 Oeste 0 -- -- 85
2020-06-05 00:00:00 12.1 10 Noroeste 35 Noroeste 0.2 -- -- 85
2020-06-04 23:00:00 12.8 14 Noroeste 30 Oeste 0 -- -- 84
2020-06-04 22:00:00 13.5 8 Oeste 37 Noroeste 0 -- -- 75
2020-06-04 21:00:00 14 21 Noroeste 40 Noroeste 0 -- -- 74
2020-06-04 20:00:00 14.6 20 Noroeste 40 Noroeste 0 -- -- 72
2020-06-04 19:00:00 15.8 19 Noroeste 42 Noroeste 0 -- -- 69
2020-06-04 18:00:00 17.8 21 Noroeste 45 Noroeste 0 -- -- 62
2020-06-04 17:00:00 18.3 21 Oeste 43 Noroeste 0 -- -- 58
2020-06-04 16:00:00 17.5 22 Noroeste 39 Noroeste 0 -- -- 58
2020-06-04 15:00:00 16.9 16 Oeste 37 Noroeste 0 -- -- 66
2020-06-04 14:00:00 16.8 19 Noroeste 34 Noroeste 0 -- -- 61
2020-06-04 13:00:00 17.4 20 Noroeste 36 Oeste 0 -- -- 59
2020-06-04 12:00:00 15.2 16 Noroeste 37 Oeste 0 -- -- 67
2020-06-04 11:00:00 14.6 14 Noroeste 31 Noroeste 0 -- -- 72
2020-06-04 10:00:00 14.8 8 Oeste 16 Sudoeste 0 -- -- 80
2020-06-04 09:00:00 14.6 3 Oeste 17 Oeste 0 -- -- 78
2020-06-04 08:00:00 12.2 10 Noroeste 17 Noroeste 0 -- -- 90
2020-06-04 07:00:00 9.8 8 Noroeste 14 Noroeste 0 -- -- 94
2020-06-04 06:00:00 10.4 11 Noroeste 14 Noroeste 0 -- -- 93
2020-06-04 05:00:00 11.1 8 Noroeste 12 Noroeste 0 -- -- 90
2020-06-04 04:00:00 12.1 7 Noroeste 12 Oeste 0 -- -- 88
2020-06-04 03:00:00 12.2 5 Norte 9 Norte 0 -- -- 89
2020-06-04 02:00:00 13.1 4 Norte 14 Norte 0 -- -- 87
2020-06-04 01:00:00 13.7 5 Oeste 11 Noroeste 0 -- -- 87
2020-06-04 00:00:00 14.2 8 Noroeste 16 Noroeste 0 -- -- 91